Bage, Brazil
Current Conditions -  °F | °C
As of 6:00 AM on Saturday 29 Nov 2014 (Local Time) from SBPK Reporting Station
Few Clouds Few Clouds  
Wind Chill: 63°   Ceiling: Unl
Heat Index: 63°   Visibility: 6mi
Dew Point: 63°   Wind: 5mph
Humidity: 100%   Direction: 80°E
Pressure: 29.94"   Gusts: NA
Location:  31.32°S, 54.1°W
Report Text: SBPK 290800Z 08004KT 9999 FEW020 17/17 Q1014
Loading
Personal Weather Stations






























Interactive Weather Map New forecast layout! Learn more

10-Day Weather Forecast

Advertisements
Track Severe Weather on mobile